Time;durP1;ratioP1;P1;durP2;ratioP2;P2;SDS_P1;SDS_P2;PMS_P1;PMS_P2;Temp;Humidity;BMP_temperature;BMP_pressure;BME280_temperature;BME280_humidity;BME280_pressure;Samples;Min_cycle;Max_cycle;Signal;HPM_P1;HPM_P2
2024/03/29 01:44:56;;;;;;;1.00;0.60;;;10.80;51.70;;;;;;4982164;28;20061;-57
2024/03/29 01:47:24;;;;;;;0.90;0.60;;;10.70;51.60;;;;;;5004314;28;20632;-54
2024/03/29 01:49:51;;;;;;;0.45;0.45;;;10.80;51.60;;;;;;4988054;28;20049;-58
2024/03/29 01:52:21;;;;;;;3.22;0.73;;;10.80;51.60;;;;;;4998713;28;20498;-58
2024/03/29 01:54:50;;;;;;;0.40;0.40;;;10.80;51.70;;;;;;5002235;28;20064;-57
2024/03/29 01:57:18;;;;;;;0.50;0.50;;;10.80;51.80;;;;;;4996289;28;20066;-57
2024/03/29 01:59:47;;;;;;;0.73;0.73;;;10.80;51.70;;;;;;5001580;28;20064;-55
2024/03/29 02:02:15;;;;;;;0.40;0.40;;;10.80;51.80;;;;;;4999874;28;20066;-54
2024/03/29 02:04:43;;;;;;;0.43;0.43;;;10.80;51.90;;;;;;5000220;28;20062;-55
2024/03/29 02:07:11;;;;;;;0.50;0.50;;;10.80;51.60;;;;;;4997304;28;20058;-56
2024/03/29 02:09:40;;;;;;;0.43;0.40;;;10.90;52.00;;;;;;5002537;28;20065;-56
2024/03/29 02:12:08;;;;;;;0.45;0.45;;;10.80;51.90;;;;;;5012145;28;20058;-57
2024/03/29 02:14:36;;;;;;;0.57;0.57;;;10.90;51.90;;;;;;4993374;28;20053;-54
2024/03/29 02:17:03;;;;;;;1.10;0.75;;;10.80;51.80;;;;;;5011034;28;20064;-57
2024/03/29 02:19:30;;;;;;;0.63;0.63;;;10.80;51.70;;;;;;5003487;28;20111;-57
2024/03/29 02:22:01;;;;;;;0.50;0.50;;;10.80;51.80;;;;;;4990277;28;20050;-57
2024/03/29 02:24:30;;;;;;;0.65;0.65;;;10.80;51.60;;;;;;5003649;28;20053;-56
2024/03/29 02:26:58;;;;;;;1.35;0.80;;;10.80;51.50;;;;;;4992905;28;20056;-56
2024/03/29 02:29:26;;;;;;;1.02;0.68;;;10.70;51.50;;;;;;5002080;28;20058;-56
2024/03/29 02:31:53;;;;;;;0.45;0.45;;;10.70;51.60;;;;;;4990178;28;20564;-58
2024/03/29 02:34:21;;;;;;;0.60;0.60;;;10.70;51.70;;;;;;5004494;28;20116;-57
2024/03/29 02:36:48;;;;;;;0.82;0.82;;;10.70;51.70;;;;;;5007694;28;20057;-57
2024/03/29 02:39:16;;;;;;;0.60;0.60;;;10.70;52.00;;;;;;5008001;28;20084;-57
2024/03/29 02:41:45;;;;;;;0.55;0.55;;;10.70;52.10;;;;;;5000533;28;21095;-56
2024/03/29 02:44:12;;;;;;;0.50;0.50;;;10.70;52.00;;;;;;5009710;28;20124;-56
2024/03/29 02:46:39;;;;;;;0.77;0.77;;;10.70;52.00;;;;;;4991795;28;20050;-50
2024/03/29 02:49:07;;;;;;;0.60;0.60;;;10.70;52.00;;;;;;5000652;28;20195;-56
2024/03/29 02:51:33;;;;;;;1.85;1.15;;;10.70;51.90;;;;;;5000536;28;20053;-55
2024/03/29 02:54:00;;;;;;;0.50;0.50;;;10.80;51.90;;;;;;4993664;28;20239;-56
2024/03/29 02:56:28;;;;;;;1.80;0.80;;;10.80;51.90;;;;;;5009603;28;20073;-56
2024/03/29 02:58:59;;;;;;;0.45;0.45;;;10.90;51.90;;;;;;5004185;28;20236;-60
2024/03/29 03:01:25;;;;;;;0.85;0.85;;;11.00;51.70;;;;;;5001771;28;20058;-54
2024/03/29 03:03:54;;;;;;;0.80;0.80;;;11.10;51.60;;;;;;4989966;28;20049;-55
2024/03/29 03:06:20;;;;;;;1.15;1.15;;;11.20;51.40;;;;;;5003992;28;20057;-56
2024/03/29 03:11:32;;;;;;;0.40;0.40;;;11.30;51.20;;;;;;5012492;28;20130;-56
2024/03/29 03:14:01;;;;;;;0.50;0.50;;;11.30;51.10;;;;;;4999127;28;20053;-57
2024/03/29 03:16:28;;;;;;;0.90;0.70;;;11.30;50.90;;;;;;5008036;28;20049;-54
2024/03/29 03:18:54;;;;;;;0.60;0.60;;;11.30;50.90;;;;;;4994837;28;20045;-56
2024/03/29 03:21:22;;;;;;;1.45;0.70;;;11.20;50.80;;;;;;5019228;28;20075;-59
2024/03/29 03:23:48;;;;;;;0.73;0.73;;;11.20;50.80;;;;;;4998198;28;20046;-55
2024/03/29 03:26:15;;;;;;;0.52;0.50;;;11.20;50.70;;;;;;4993343;28;20096;-53
2024/03/29 03:28:42;;;;;;;0.50;0.50;;;11.30;50.70;;;;;;5020318;28;20131;-59
2024/03/29 03:31:11;;;;;;;0.52;0.52;;;11.30;50.60;;;;;;5004487;28;20072;-57
2024/03/29 03:33:37;;;;;;;0.60;0.60;;;11.30;50.50;;;;;;5004449;28;20497;-56
2024/03/29 03:36:05;;;;;;;0.68;0.68;;;11.30;50.50;;;;;;4996543;28;21849;-57
2024/03/29 03:38:34;;;;;;;0.68;0.63;;;11.30;50.30;;;;;;5013292;28;20045;-57
2024/03/29 03:41:01;;;;;;;1.10;1.10;;;11.30;50.20;;;;;;5011096;28;20060;-62
2024/03/29 03:43:28;;;;;;;0.85;0.75;;;11.30;50.30;;;;;;5001799;28;20209;-55
2024/03/29 03:45:59;;;;;;;0.60;0.60;;;11.20;50.20;;;;;;4996740;28;20054;-57
2024/03/29 03:48:29;;;;;;;6.85;0.85;;;11.20;50.10;;;;;;4989902;28;20049;-56
2024/03/29 03:50:55;;;;;;;0.55;0.55;;;11.20;50.10;;;;;;4989026;28;20100;-58
2024/03/29 03:53:23;;;;;;;2.03;1.23;;;11.20;50.10;;;;;;5005370;28;20081;-57
2024/03/29 03:55:51;;;;;;;0.57;0.57;;;11.20;50.10;;;;;;4995297;28;20058;-56
2024/03/29 03:58:18;;;;;;;0.40;0.40;;;11.20;50.30;;;;;;5013043;28;20059;-57
2024/03/29 04:00:45;;;;;;;1.65;0.80;;;11.10;50.10;;;;;;4996951;28;20076;-59
2024/03/29 04:03:12;;;;;;;0.50;0.50;;;11.10;50.10;;;;;;5006019;28;20057;-57
2024/03/29 04:05:40;;;;;;;1.15;1.00;;;11.10;50.10;;;;;;5005558;28;20049;-56
2024/03/29 04:08:08;;;;;;;0.60;0.60;;;11.10;50.10;;;;;;4985244;28;20051;-58
2024/03/29 04:10:38;;;;;;;0.68;0.50;;;11.00;50.10;;;;;;5006347;28;20045;-56
2024/03/29 04:13:05;;;;;;;2.35;1.38;;;11.00;50.10;;;;;;5015567;28;20064;-57
2024/03/29 04:15:32;;;;;;;0.52;0.52;;;11.00;50.30;;;;;;5001397;28;20053;-57
2024/03/29 04:18:00;;;;;;;0.82;0.80;;;11.10;50.40;;;;;;4992141;28;20080;-58
2024/03/29 04:20:27;;;;;;;0.40;0.40;;;11.10;50.30;;;;;;5006831;28;20068;-49
2024/03/29 04:22:55;;;;;;;11.50;0.70;;;11.10;50.30;;;;;;5002064;28;20921;-56
2024/03/29 04:25:22;;;;;;;0.40;0.40;;;11.10;50.20;;;;;;4996246;28;20057;-57
2024/03/29 04:27:49;;;;;;;1.10;0.80;;;11.10;50.20;;;;;;5000021;28;20062;-56
2024/03/29 04:30:15;;;;;;;0.52;0.50;;;11.10;50.20;;;;;;4999361;28;20164;-55
2024/03/29 04:32:43;;;;;;;0.43;0.43;;;11.20;50.00;;;;;;4992854;28;20049;-55
2024/03/29 04:35:09;;;;;;;0.80;0.80;;;11.20;50.10;;;;;;4998179;28;20064;-56
2024/03/29 04:37:36;;;;;;;0.40;0.40;;;11.10;50.00;;;;;;5002211;28;20061;-56
2024/03/29 04:40:07;;;;;;;0.88;0.88;;;11.10;50.00;;;;;;4977104;28;20068;-56
2024/03/29 04:42:34;;;;;;;0.65;0.65;;;11.20;50.00;;;;;;4985255;28;20050;-57
2024/03/29 04:45:01;;;;;;;0.55;0.55;;;11.20;49.90;;;;;;4999068;28;20243;-55
2024/03/29 04:47:29;;;;;;;0.63;0.60;;;11.20;49.90;;;;;;5007756;28;20049;-58
2024/03/29 04:49:56;;;;;;;0.65;0.65;;;11.20;49.80;;;;;;4990024;28;20053;-58
2024/03/29 04:52:25;;;;;;;0.50;0.50;;;11.20;49.80;;;;;;4991460;28;20106;-55
2024/03/29 04:54:53;;;;;;;0.65;0.65;;;11.20;49.80;;;;;;4995604;28;20388;-58
2024/03/29 04:57:21;;;;;;;0.40;0.40;;;11.20;49.80;;;;;;4998956;28;20058;-58
2024/03/29 04:59:49;;;;;;;0.93;0.93;;;11.20;49.80;;;;;;4993009;28;20050;-57
2024/03/29 05:02:16;;;;;;;0.65;0.65;;;11.20;49.80;;;;;;5000456;28;20096;-57
2024/03/29 05:04:44;;;;;;;0.73;0.70;;;11.20;49.80;;;;;;5001374;28;20123;-55
2024/03/29 05:07:11;;;;;;;0.65;0.65;;;11.20;49.70;;;;;;4982677;28;20069;-56
2024/03/29 05:09:39;;;;;;;0.60;0.60;;;11.20;49.70;;;;;;4995269;28;20096;-57
2024/03/29 05:12:06;;;;;;;0.70;0.70;;;11.30;49.70;;;;;;4990021;28;20052;-60
2024/03/29 05:14:35;;;;;;;0.98;0.88;;;11.30;49.50;;;;;;5005909;28;20062;-59
2024/03/29 05:17:03;;;;;;;5.13;0.98;;;11.30;49.40;;;;;;4997741;28;20061;-58
2024/03/29 05:19:30;;;;;;;1.08;0.63;;;11.30;49.30;;;;;;5005660;28;20061;-58
2024/03/29 05:21:58;;;;;;;0.60;0.60;;;11.30;49.30;;;;;;4998827;28;20100;-55
2024/03/29 05:24:25;;;;;;;2.95;0.73;;;11.30;49.50;;;;;;4997288;28;20084;-57
2024/03/29 05:26:52;;;;;;;0.47;0.47;;;11.30;49.50;;;;;;5000290;28;20057;-56
2024/03/29 05:29:20;;;;;;;0.70;0.70;;;11.40;49.60;;;;;;4998586;28;20053;-56
2024/03/29 05:31:50;;;;;;;0.60;0.60;;;11.50;49.70;;;;;;4992230;28;20586;-61
2024/03/29 05:34:17;;;;;;;0.45;0.45;;;11.50;49.80;;;;;;4993993;28;20157;-59
2024/03/29 05:36:45;;;;;;;0.65;0.63;;;11.70;49.70;;;;;;4996402;28;20068;-56
2024/03/29 05:39:13;;;;;;;0.70;0.60;;;11.80;49.60;;;;;;4998500;28;20063;-56
2024/03/29 05:41:40;;;;;;;2.67;0.68;;;11.80;49.70;;;;;;4997416;28;20057;-57
2024/03/29 05:44:08;;;;;;;0.70;0.70;;;11.90;49.50;;;;;;4990945;28;20144;-58
2024/03/29 05:46:35;;;;;;;0.43;0.43;;;12.00;49.50;;;;;;4999690;28;20182;-57
2024/03/29 05:49:04;;;;;;;0.70;0.60;;;12.10;49.40;;;;;;4979702;28;20046;-57
2024/03/29 05:51:31;;;;;;;0.40;0.40;;;12.20;49.30;;;;;;4996665;28;20063;-55
2024/03/29 05:53:59;;;;;;;0.60;0.60;;;12.30;49.20;;;;;;4991229;28;20045;-58
2024/03/29 05:56:26;;;;;;;1.42;0.88;;;12.40;49.10;;;;;;4997925;28;20062;-54
2024/03/29 05:58:53;;;;;;;0.60;0.60;;;12.40;49.60;;;;;;4997321;28;20120;-56
2024/03/29 06:01:21;;;;;;;2.22;1.25;;;12.50;49.00;;;;;;4986221;28;20084;-53
2024/03/29 06:03:48;;;;;;;1.17;1.08;;;12.50;48.90;;;;;;4992040;28;20058;-57
2024/03/29 06:06:21;;;;;;;0.88;0.88;;;12.60;48.90;;;;;;4995609;28;20472;-57
2024/03/29 06:08:49;;;;;;;1.42;1.10;;;12.60;48.80;;;;;;4998016;28;20060;-53
2024/03/29 06:11:16;;;;;;;2.80;1.33;;;12.70;48.80;;;;;;5004126;28;20050;-58
2024/03/29 06:19:16;;;;;;;3.92;1.05;;;13.00;48.80;;;;;;5000668;28;20069;-58
2024/03/29 06:21:47;;;;;;;4.20;0.63;;;13.10;48.70;;;;;;5001601;28;20046;-59
2024/03/29 06:24:14;;;;;;;1.45;0.60;;;13.20;48.50;;;;;;5002017;28;20076;-57
2024/03/29 06:26:42;;;;;;;1.02;0.95;;;13.30;48.50;;;;;;4986951;28;20666;-57
2024/03/29 06:29:13;;;;;;;0.32;0.32;;;13.40;48.40;;;;;;5002044;28;20135;-55
2024/03/29 06:31:41;;;;;;;0.55;0.55;;;13.60;48.20;;;;;;5006105;28;20488;-53
2024/03/29 06:34:08;;;;;;;0.50;0.50;;;13.80;48.10;;;;;;5000462;28;20104;-57
2024/03/29 06:36:37;;;;;;;0.80;0.80;;;13.90;47.90;;;;;;5003945;28;20138;-54
2024/03/29 06:39:08;;;;;;;1.40;1.30;;;14.00;47.70;;;;;;4999936;28;20470;-59
2024/03/29 06:41:35;;;;;;;5.88;0.93;;;14.10;47.60;;;;;;4998262;28;20093;-58
2024/03/29 06:44:03;;;;;;;2.20;0.77;;;14.20;47.50;;;;;;4987489;28;20728;-59
2024/03/29 06:46:31;;;;;;;0.85;0.50;;;14.30;47.30;;;;;;4996912;28;21862;-57
2024/03/29 06:48:59;;;;;;;0.52;0.52;;;14.30;47.20;;;;;;4985960;28;20053;-59
2024/03/29 06:51:30;;;;;;;0.85;0.60;;;14.30;47.10;;;;;;4996017;28;20041;-56
2024/03/29 06:53:58;;;;;;;0.43;0.43;;;14.20;47.00;;;;;;4993145;28;20092;-57
2024/03/29 06:56:33;;;;;;;1.10;1.00;;;14.20;47.10;;;;;;5006206;28;20049;-54
2024/03/29 06:59:00;;;;;;;0.38;0.38;;;14.20;47.20;;;;;;5007581;28;20067;-59
2024/03/29 07:01:27;;;;;;;1.85;0.65;;;14.20;47.20;;;;;;5002707;28;20045;-58
2024/03/29 07:03:55;;;;;;;0.40;0.40;;;14.20;47.10;;;;;;4995036;28;20046;-54
2024/03/29 07:06:22;;;;;;;0.32;0.32;;;14.20;47.10;;;;;;5002237;28;20471;-59
2024/03/29 07:08:50;;;;;;;3.65;0.60;;;14.30;47.10;;;;;;5002487;28;20050;-58
2024/03/29 07:11:17;;;;;;;0.40;0.40;;;14.30;47.00;;;;;;4997955;28;20068;-57
2024/03/29 07:13:47;;;;;;;0.77;0.57;;;14.40;46.90;;;;;;5001853;28;20046;-54
2024/03/29 07:16:14;;;;;;;0.50;0.50;;;14.60;46.90;;;;;;5012883;28;20054;-56
2024/03/29 07:18:42;;;;;;;0.52;0.52;;;14.70;46.90;;;;;;4995751;28;20057;-58
2024/03/29 07:21:09;;;;;;;0.38;0.38;;;14.90;46.80;;;;;;4998274;28;20141;-59
2024/03/29 07:23:36;;;;;;;0.93;0.70;;;15.00;46.60;;;;;;4998734;28;20050;-60
2024/03/29 07:26:06;;;;;;;0.80;0.75;;;15.10;46.60;;;;;;4997674;28;20120;-60
2024/03/29 07:28:33;;;;;;;0.60;0.55;;;15.20;46.50;;;;;;5000806;28;20061;-60
2024/03/29 07:31:08;;;;;;;20.20;0.68;;;15.30;46.40;;;;;;5001252;28;20054;-60
2024/03/29 07:33:37;;;;;;;2.00;0.60;;;15.50;46.40;;;;;;4998665;28;20136;-61
2024/03/29 07:36:05;;;;;;;0.60;0.60;;;15.60;46.20;;;;;;4992006;28;21610;-57
2024/03/29 07:38:33;;;;;;;0.63;0.63;;;15.80;46.10;;;;;;4999051;28;20400;-59
2024/03/29 07:41:00;;;;;;;0.65;0.60;;;15.90;46.10;;;;;;4995025;28;20057;-60
2024/03/29 07:43:37;;;;;;;0.57;0.50;;;16.40;46.50;;;;;;4993563;28;20614;-60
2024/03/29 07:46:09;;;;;;;3.28;1.13;;;17.90;47.40;;;;;;4992910;28;20115;-61
2024/03/29 07:48:37;;;;;;;1.60;1.23;;;20.00;46.40;;;;;;4999243;28;20049;-61
2024/03/29 07:51:04;;;;;;;0.20;0.20;;;21.90;44.50;;;;;;4994612;28;20057;-58
2024/03/29 07:53:32;;;;;;;0.57;0.40;;;23.40;42.60;;;;;;4995352;28;20111;-60
2024/03/29 07:56:00;;;;;;;0.55;0.40;;;24.40;40.30;;;;;;4992011;28;20058;-60
2024/03/29 07:58:28;;;;;;;0.43;0.32;;;24.80;37.70;;;;;;4980228;28;20046;-60
2024/03/29 08:00:56;;;;;;;1.50;0.73;;;25.20;37.00;;;;;;5002265;28;20136;-60
2024/03/29 08:03:25;;;;;;;0.45;0.22;;;26.00;38.00;;;;;;5002026;28;20107;-60
2024/03/29 08:05:59;;;;;;;1.60;0.63;;;26.80;37.80;;;;;;4977144;28;20472;-60
2024/03/29 08:08:27;;;;;;;2.13;0.40;;;27.50;36.80;;;;;;5000516;28;20061;-61
2024/03/29 08:10:55;;;;;;;0.63;0.28;;;28.20;36.40;;;;;;4987319;28;20066;-53
2024/03/29 08:13:23;;;;;;;1.80;0.68;;;29.00;35.70;;;;;;5002799;28;20072;-58
2024/03/29 08:15:50;;;;;;;0.90;0.52;;;29.70;34.80;;;;;;4972928;28;20048;-57
2024/03/29 08:18:18;;;;;;;0.70;0.50;;;30.20;34.60;;;;;;5005883;28;20145;-59
2024/03/29 08:20:46;;;;;;;0.73;0.50;;;30.90;33.50;;;;;;4997657;28;20041;-61
2024/03/29 08:23:14;;;;;;;0.63;0.45;;;31.20;33.00;;;;;;4997524;28;20058;-61
2024/03/29 08:25:42;;;;;;;0.25;0.25;;;31.20;32.60;;;;;;5003424;28;20380;-56
2024/03/29 08:28:10;;;;;;;0.95;0.35;;;31.20;32.30;;;;;;5005923;28;20600;-59
2024/03/29 08:30:38;;;;;;;1.38;0.70;;;31.10;31.90;;;;;;4989492;28;20057;-61
2024/03/29 08:33:05;;;;;;;0.65;0.47;;;30.90;31.90;;;;;;4995381;28;20060;-59
2024/03/29 08:35:34;;;;;;;2.97;0.70;;;30.90;31.60;;;;;;5001448;28;20057;-60
2024/03/29 08:38:03;;;;;;;2.75;0.80;;;30.80;31.70;;;;;;4993156;28;20455;-59
2024/03/29 08:40:34;;;;;;;0.45;0.30;;;31.20;31.80;;;;;;5002769;28;20053;-64
2024/03/29 08:43:04;;;;;;;6.20;0.63;;;31.60;31.10;;;;;;5003391;28;20061;-61
2024/03/29 08:45:31;;;;;;;6.47;0.90;;;32.30;30.80;;;;;;5001890;28;20686;-60
2024/03/29 08:47:58;;;;;;;0.35;0.35;;;32.40;29.60;;;;;;4991080;28;20077;-61
2024/03/29 08:50:26;;;;;;;0.17;0.17;;;32.20;29.40;;;;;;5000181;28;20143;-60
2024/03/29 08:52:53;;;;;;;0.70;0.40;;;31.90;29.30;;;;;;4997057;28;20058;-63
2024/03/29 08:55:22;;;;;;;9.27;0.73;;;31.60;29.30;;;;;;4998917;28;20053;-62
2024/03/29 08:57:49;;;;;;;0.82;0.50;;;31.80;29.30;;;;;;4986040;28;20061;-62
2024/03/29 09:00:17;;;;;;;0.90;0.68;;;32.00;28.80;;;;;;4997792;28;20073;-59
2024/03/29 09:02:44;;;;;;;2.67;1.15;;;32.10;29.00;;;;;;4996217;28;20062;-59
2024/03/29 09:05:12;;;;;;;3.55;0.50;;;32.20;29.10;;;;;;4980387;28;20389;-59
2024/03/29 09:07:40;;;;;;;5.32;0.70;;;32.70;28.50;;;;;;4997387;28;20092;-62
2024/03/29 09:10:09;;;;;;;1.63;0.80;;;32.90;28.40;;;;;;4996285;28;20100;-61
2024/03/29 09:12:37;;;;;;;1.00;0.73;;;33.00;28.20;;;;;;4995119;28;20054;-61
2024/03/29 09:15:10;;;;;;;1.73;0.75;;;33.00;28.20;;;;;;5001341;28;20058;-59
2024/03/29 09:17:38;;;;;;;0.80;0.40;;;32.70;28.00;;;;;;4997768;28;20211;-60
2024/03/29 09:20:06;;;;;;;0.70;0.45;;;32.20;27.90;;;;;;4994089;28;21534;-62
2024/03/29 09:22:33;;;;;;;2.90;0.52;;;31.40;28.00;;;;;;5003329;28;20563;-60
2024/03/29 09:25:01;;;;;;;1.95;0.98;;;30.50;28.20;;;;;;4990160;28;20631;-60
2024/03/29 09:27:29;;;;;;;3.97;1.10;;;29.80;28.80;;;;;;4981309;28;20064;-59
2024/03/29 09:29:57;;;;;;;3.22;0.70;;;29.20;29.10;;;;;;4995100;28;20060;-58
2024/03/29 09:32:25;;;;;;;8.18;0.75;;;28.60;29.10;;;;;;4996494;28;20065;-61
2024/03/29 09:34:53;;;;;;;2.25;0.82;;;28.20;29.50;;;;;;5003309;28;20048;-61
2024/03/29 09:37:20;;;;;;;0.60;0.45;;;27.70;29.50;;;;;;5009108;28;20057;-61
2024/03/29 09:39:50;;;;;;;7.78;0.68;;;27.30;29.70;;;;;;4986880;28;20511;-59
2024/03/29 09:42:18;;;;;;;0.82;0.52;;;26.90;29.70;;;;;;4999750;28;20054;-60
2024/03/29 09:44:47;;;;;;;2.85;0.80;;;26.70;30.00;;;;;;5001077;28;20081;-61
2024/03/29 09:47:22;;;;;;;0.77;0.45;;;26.40;30.00;;;;;;4986776;28;20417;-58
2024/03/29 09:49:51;;;;;;;3.47;0.68;;;26.30;30.20;;;;;;5001401;28;20484;-61
2024/03/29 09:52:20;;;;;;;7.03;0.70;;;26.30;30.30;;;;;;4999517;28;20065;-62
2024/03/29 09:54:48;;;;;;;0.25;0.25;;;26.30;30.20;;;;;;4998680;28;20050;-62
2024/03/29 09:57:17;;;;;;;8.38;0.55;;;26.30;30.00;;;;;;4998820;28;20057;-62
2024/03/29 09:59:44;;;;;;;0.40;0.30;;;26.00;30.00;;;;;;4997290;28;20200;-57
2024/03/29 10:02:17;;;;;;;2.28;0.57;;;25.90;30.50;;;;;;4990051;28;20061;-61
2024/03/29 10:04:50;;;;;;;0.90;0.90;;;25.90;30.30;;;;;;4997313;28;20054;-60
2024/03/29 10:07:18;;;;;;;0.40;0.40;;;26.00;30.50;;;;;;5001846;28;20050;-60
2024/03/29 10:09:48;;;;;;;4.38;0.60;;;26.10;30.60;;;;;;4990254;28;20529;-58
2024/03/29 10:12:17;;;;;;;2.58;0.60;;;26.20;30.60;;;;;;4997905;28;20060;-60
2024/03/29 10:14:49;;;;;;;1.35;0.60;;;26.30;30.70;;;;;;5002324;28;20081;-61
2024/03/29 10:17:18;;;;;;;1.70;0.70;;;26.80;31.00;;;;;;4998114;28;20061;-60
2024/03/29 10:19:46;;;;;;;2.22;0.57;;;27.10;30.30;;;;;;4999022;28;20057;-55
2024/03/29 10:22:14;;;;;;;3.63;0.73;;;27.00;30.20;;;;;;4987470;28;20099;-60
2024/03/29 10:24:42;;;;;;;1.15;0.63;;;27.30;30.70;;;;;;4985671;28;20046;-60
2024/03/29 10:27:09;;;;;;;0.77;0.43;;;27.90;30.30;;;;;;5001408;28;20378;-61
2024/03/29 10:29:37;;;;;;;1.05;0.73;;;28.10;30.00;;;;;;4992873;28;20050;-59
2024/03/29 10:32:05;;;;;;;1.10;0.63;;;27.90;29.70;;;;;;4995059;28;20555;-59
2024/03/29 10:34:36;;;;;;;0.88;0.60;;;27.50;29.80;;;;;;5002224;28;20050;-62
2024/03/29 10:37:03;;;;;;;3.60;0.73;;;27.10;29.90;;;;;;5000830;28;20108;-62
2024/03/29 10:39:33;;;;;;;0.70;0.50;;;26.90;30.10;;;;;;4996269;28;20041;-61
2024/03/29 10:42:03;;;;;;;3.30;0.70;;;26.80;30.20;;;;;;4979003;28;20046;-60
2024/03/29 10:44:31;;;;;;;1.50;0.85;;;26.70;30.20;;;;;;5001566;28;20061;-61
2024/03/29 10:47:00;;;;;;;1.77;0.60;;;26.60;30.30;;;;;;4982591;28;20424;-61
2024/03/29 10:49:28;;;;;;;2.10;0.55;;;26.50;30.40;;;;;;5003868;28;20068;-58
2024/03/29 10:52:02;;;;;;;5.63;1.02;;;26.40;30.50;;;;;;4999824;28;20072;-60
2024/03/29 10:54:30;;;;;;;8.10;0.88;;;26.60;30.50;;;;;;5003978;28;20060;-58
2024/03/29 10:57:06;;;;;;;2.35;0.80;;;26.80;30.50;;;;;;5001203;28;20404;-58
2024/03/29 10:59:50;;;;;;;1.15;0.60;;;27.20;30.40;;;;;;5001707;28;20058;-60
2024/03/29 11:02:34;;;;;;;0.40;0.40;;;27.40;30.30;;;;;;4996762;28;20057;-60
2024/03/29 11:05:05;;;;;;;4.45;0.60;;;28.00;30.30;;;;;;4994369;28;20058;-60
2024/03/29 11:07:36;;;;;;;0.88;0.40;;;29.20;30.10;;;;;;4999789;28;20077;-59
2024/03/29 11:10:05;;;;;;;2.70;0.40;;;30.30;29.30;;;;;;4979323;28;20053;-62
2024/03/29 11:12:41;;;;;;;0.47;0.43;;;30.60;28.50;;;;;;5000300;28;20166;-61
2024/03/29 11:15:17;;;;;;;3.30;0.50;;;30.90;28.30;;;;;;4982105;28;20183;-59
2024/03/29 11:17:44;;;;;;;;;;;31.00;28.10;;;;;;5001377;28;20373;-58
2024/03/29 11:20:17;;;;;;;1.92;0.38;;;30.50;27.90;;;;;;4998424;28;19925;-60
2024/03/29 11:22:48;;;;;;;2.03;0.28;;;29.60;27.80;;;;;;5003517;28;20484;-62
2024/03/29 11:25:16;;;;;;;0.77;0.38;;;28.80;28.20;;;;;;5001903;28;20054;-60
2024/03/29 11:27:44;;;;;;;0.55;0.38;;;28.10;28.50;;;;;;4997496;28;20068;-62
2024/03/29 11:30:13;;;;;;;1.75;0.55;;;27.50;28.90;;;;;;4997348;28;20215;-60
2024/03/29 11:32:41;;;;;;;4.88;0.25;;;27.10;29.20;;;;;;5002158;28;20131;-62
2024/03/29 11:35:15;;;;;;;0.90;0.47;;;26.80;29.20;;;;;;4998143;28;20051;-60
2024/03/29 11:37:43;;;;;;;2.67;0.70;;;26.60;30.00;;;;;;4998422;28;20077;-61
2024/03/29 11:40:14;;;;;;;2.35;0.30;;;26.50;29.80;;;;;;4995445;28;21035;-63
2024/03/29 11:42:46;;;;;;;2.53;0.60;;;26.60;29.80;;;;;;5003669;28;20058;-62
2024/03/29 11:45:14;;;;;;;2.30;0.68;;;26.70;29.90;;;;;;4997244;28;20045;-64
2024/03/29 11:47:42;;;;;;;1.30;0.40;;;26.90;30.00;;;;;;4997966;28;20198;-61
2024/03/29 11:50:12;;;;;;;1.33;0.90;;;27.10;30.00;;;;;;4974238;28;20182;-61
2024/03/29 11:52:40;;;;;;;9.18;1.08;;;27.30;29.90;;;;;;4997849;28;20049;-60
2024/03/29 11:55:08;;;;;;;3.17;0.75;;;27.40;29.70;;;;;;4984541;28;20182;-61
2024/03/29 11:57:40;;;;;;;0.25;0.25;;;27.40;29.50;;;;;;4998802;28;20041;-57
2024/03/29 12:00:12;;;;;;;0.20;0.20;;;27.30;29.20;;;;;;4991219;28;20801;-60
2024/03/29 12:02:41;;;;;;;4.30;0.50;;;27.20;29.30;;;;;;5015260;28;20053;-60
2024/03/29 12:05:10;;;;;;;1.20;0.55;;;27.10;29.40;;;;;;5000333;28;20058;-61
2024/03/29 12:07:38;;;;;;;1.77;0.32;;;27.00;29.50;;;;;;4989374;28;20460;-61
2024/03/29 12:10:06;;;;;;;0.28;0.13;;;26.90;29.30;;;;;;4982353;28;20781;-58
2024/03/29 12:12:38;;;;;;;0.63;0.52;;;26.70;29.30;;;;;;4989164;28;20054;-60
2024/03/29 12:15:08;;;;;;;8.05;0.38;;;26.60;29.60;;;;;;5001148;28;20041;-59
2024/03/29 12:17:38;;;;;;;0.40;0.40;;;26.50;29.70;;;;;;5002178;28;20139;-61
2024/03/29 12:20:12;;;;;;;0.52;0.47;;;26.50;29.90;;;;;;4990075;28;20069;-58
2024/03/29 12:22:40;;;;;;;0.70;0.10;;;26.40;29.90;;;;;;4998695;28;20057;-60
2024/03/29 12:25:09;;;;;;;0.85;0.28;;;26.30;29.70;;;;;;4995116;28;20239;-61
2024/03/29 12:27:37;;;;;;;2.05;0.73;;;26.30;29.80;;;;;;4996119;28;20101;-60
2024/03/29 12:30:07;;;;;;;0.95;0.40;;;26.20;29.60;;;;;;4995608;28;21109;-60
2024/03/29 12:32:35;;;;;;;2.03;0.30;;;26.20;29.90;;;;;;4990467;28;20114;-62
2024/03/29 12:35:09;;;;;;;2.03;0.28;;;26.30;29.90;;;;;;5000146;28;20100;-60
2024/03/29 12:37:37;;;;;;;1.52;0.55;;;26.30;29.70;;;;;;5008982;28;20532;-62
2024/03/29 12:40:12;;;;;;;2.40;0.60;;;26.30;29.90;;;;;;4996689;28;21003;-61
2024/03/29 12:42:40;;;;;;;0.28;0.20;;;26.40;29.90;;;;;;4993381;28;20141;-59
2024/03/29 12:45:10;;;;;;;2.42;0.40;;;26.50;29.80;;;;;;4998393;28;20052;-58
2024/03/29 12:47:38;;;;;;;4.25;0.80;;;26.50;29.70;;;;;;4985814;28;20499;-61
2024/03/29 12:50:07;;;;;;;0.40;0.35;;;26.60;29.80;;;;;;4994752;28;20123;-59
2024/03/29 12:52:39;;;;;;;0.40;0.17;;;26.70;29.80;;;;;;5002410;28;20052;-60
2024/03/29 12:55:07;;;;;;;0.10;0.10;;;26.80;29.80;;;;;;5001790;28;20060;-63
2024/03/29 12:57:36;;;;;;;0.45;0.30;;;26.90;29.60;;;;;;5002188;28;20195;-60
2024/03/29 13:00:08;;;;;;;0.75;0.32;;;27.00;29.50;;;;;;4994268;28;20468;-60
2024/03/29 13:02:38;;;;;;;0.88;0.50;;;27.10;29.30;;;;;;5003817;28;20519;-61
2024/03/29 13:05:05;;;;;;;0.30;0.17;;;27.20;29.30;;;;;;5001827;28;20142;-61
2024/03/29 13:07:34;;;;;;;1.45;0.63;;;27.30;29.10;;;;;;5004226;28;20145;-59
2024/03/29 13:10:03;;;;;;;0.57;0.32;;;27.50;29.20;;;;;;4991277;28;20477;-58
2024/03/29 13:12:31;;;;;;;5.10;0.40;;;27.70;28.90;;;;;;4982800;28;20160;-60
2024/03/29 13:15:04;;;;;;;17.02;0.52;;;27.90;28.90;;;;;;4996826;28;20069;-59
2024/03/29 13:17:31;;;;;;;2.20;0.20;;;28.00;28.50;;;;;;4998676;28;20045;-60
2024/03/29 13:20:00;;;;;;;0.10;0.10;;;28.00;28.40;;;;;;4995176;28;20049;-60
2024/03/29 13:22:28;;;;;;;0.57;0.52;;;27.90;28.30;;;;;;5002117;28;20058;-59
2024/03/29 13:24:55;;;;;;;0.45;0.30;;;27.90;28.10;;;;;;4983254;28;20492;-60
2024/03/29 13:27:23;;;;;;;0.75;0.25;;;27.90;28.30;;;;;;4997291;28;20057;-59
2024/03/29 13:29:52;;;;;;;0.28;0.20;;;27.90;28.40;;;;;;4994971;28;20413;-61
2024/03/29 13:32:20;;;;;;;0.10;0.10;;;27.90;28.20;;;;;;4998623;28;20057;-58
2024/03/29 13:34:47;;;;;;;0.55;0.28;;;27.90;28.10;;;;;;5001857;28;20560;-58
2024/03/29 13:37:16;;;;;;;0.20;0.20;;;27.80;27.90;;;;;;5004885;28;20057;-61
2024/03/29 13:39:45;;;;;;;0.68;0.20;;;27.70;28.10;;;;;;5003717;28;20063;-57
2024/03/29 13:42:12;;;;;;;1.38;0.20;;;27.70;28.40;;;;;;5004548;28;20661;-61
2024/03/29 13:44:40;;;;;;;0.55;0.30;;;27.60;28.00;;;;;;5004250;28;20046;-60
2024/03/29 13:47:07;;;;;;;0.15;0.00;;;27.60;28.00;;;;;;4997076;28;20050;-60
2024/03/29 13:49:35;;;;;;;0.45;0.28;;;27.50;28.00;;;;;;5000022;28;20147;-59
2024/03/29 13:52:02;;;;;;;0.40;0.40;;;27.50;28.00;;;;;;5001014;28;20148;-60
2024/03/29 13:54:31;;;;;;;1.73;0.75;;;27.50;28.10;;;;;;5001565;28;20604;-60
2024/03/29 13:56:59;;;;;;;4.57;0.22;;;27.40;28.00;;;;;;5005976;28;20430;-57
2024/03/29 13:59:28;;;;;;;0.90;0.43;;;27.30;28.00;;;;;;5007215;28;20686;-59
2024/03/29 14:01:59;;;;;;;0.28;0.28;;;27.20;28.10;;;;;;5004723;28;20123;-60
2024/03/29 14:04:27;;;;;;;0.80;0.45;;;27.10;28.00;;;;;;4994771;28;20061;-59
2024/03/29 14:06:55;;;;;;;0.65;0.22;;;27.00;27.90;;;;;;5002823;28;20420;-59
2024/03/29 14:09:23;;;;;;;0.45;0.30;;;27.00;27.70;;;;;;4973955;28;20054;-61
2024/03/29 14:11:54;;;;;;;0.13;0.13;;;27.10;27.80;;;;;;4976447;28;20168;-56
2024/03/29 14:14:22;;;;;;;8.98;1.23;;;27.20;27.80;;;;;;4999782;28;20064;-62
2024/03/29 14:16:50;;;;;;;0.13;0.10;;;27.20;27.90;;;;;;5002756;28;20056;-61
2024/03/29 14:19:17;;;;;;;0.85;0.45;;;27.20;27.80;;;;;;4980379;28;20085;-63
2024/03/29 14:21:45;;;;;;;0.00;0.00;;;27.20;27.90;;;;;;5000987;28;20054;-60
2024/03/29 14:24:12;;;;;;;0.40;0.28;;;27.10;27.80;;;;;;4990743;28;20046;-61
2024/03/29 14:26:40;;;;;;;1.08;0.22;;;27.10;28.00;;;;;;5000504;28;20045;-61
2024/03/29 14:29:11;;;;;;;0.10;0.10;;;27.10;27.90;;;;;;4997476;28;20100;-61
2024/03/29 14:31:39;;;;;;;0.10;0.10;;;27.00;28.20;;;;;;4995920;28;20785;-59
2024/03/29 14:34:06;;;;;;;0.65;0.10;;;27.00;27.70;;;;;;4992786;28;20100;-61
2024/03/29 14:36:34;;;;;;;0.40;0.22;;;27.00;27.70;;;;;;5003264;28;20058;-59
2024/03/29 14:39:01;;;;;;;0.00;0.00;;;27.00;27.80;;;;;;5003827;28;20054;-60
2024/03/29 14:41:29;;;;;;;1.73;0.20;;;27.00;27.80;;;;;;5001430;28;20125;-62
2024/03/29 14:43:57;;;;;;;0.57;0.30;;;27.00;27.70;;;;;;4990941;28;20049;-60
2024/03/29 14:46:27;;;;;;;0.32;0.20;;;26.90;27.70;;;;;;4983651;28;20509;-61